createdAt,value
2023-04-05T00:01:20.337Z,99512.53
2023-04-05T00:03:48.853Z,99513.56
2023-04-05T00:06:17.537Z,99496.13
2023-04-05T00:08:50.066Z,99504.59
2023-04-05T00:11:19.514Z,99511.47
2023-04-05T00:13:49.272Z,99522.03
2023-04-05T00:16:18.178Z,99509.09
2023-04-05T00:18:49.972Z,99512.00
2023-04-05T00:21:18.596Z,99526.53
2023-04-05T00:23:47.458Z,99524.16
2023-04-05T00:26:16.244Z,99522.06
2023-04-05T00:28:44.623Z,99521.00
2023-04-05T00:31:14.456Z,99514.13
2023-04-05T00:33:43.069Z,99518.38
2023-04-05T00:36:12.598Z,99502.00
2023-04-05T00:38:42.003Z,99530.78
2023-04-05T00:41:10.509Z,99503.84
2023-04-05T00:43:39.022Z,99522.34
2023-04-05T00:46:08.264Z,99528.41
2023-04-05T00:48:39.463Z,99513.91
2023-04-05T00:51:11.602Z,99504.13
2023-04-05T00:53:41.005Z,99518.38
2023-04-05T00:56:13.804Z,99524.47
2023-04-05T00:58:43.106Z,99521.56
2023-04-05T01:01:16.988Z,99516.78
2023-04-05T01:03:54.065Z,99524.72
2023-04-05T01:06:44.367Z,99513.38
2023-04-05T01:09:20.991Z,99534.75
2023-04-05T01:11:50.979Z,99529.75
2023-04-05T01:14:19.455Z,99544.53
2023-04-05T01:16:49.962Z,99537.41
2023-04-05T01:19:20.070Z,99538.19
2023-04-05T01:22:15.219Z,99562.47
2023-04-05T01:25:24.148Z,99536.34
2023-04-05T01:28:07.985Z,99563.81
2023-04-05T01:30:40.981Z,99555.63
2023-04-05T01:33:18.575Z,99554.03
2023-04-05T01:35:55.511Z,99558.00
2023-04-05T01:38:26.338Z,99553.00
2023-04-05T01:40:55.266Z,99563.78
2023-04-05T01:43:23.674Z,99575.41
2023-04-05T01:45:53.556Z,99548.47
2023-04-05T01:48:21.970Z,99562.72
2023-04-05T01:50:50.352Z,99564.84
2023-04-05T01:53:18.878Z,99577.00
2023-04-05T01:55:47.437Z,99559.31
2023-04-05T01:58:15.913Z,99577.00
2023-04-05T02:00:44.517Z,99569.09
2023-04-05T02:03:14.655Z,99588.59
2023-04-05T02:05:44.072Z,99567.47
2023-04-05T02:08:13.408Z,99579.63
2023-04-05T02:10:42.214Z,99571.44
2023-04-05T02:13:10.800Z,99588.06
2023-04-05T02:15:39.150Z,99563.53
2023-04-05T02:18:08.157Z,99584.13
2023-04-05T02:20:39.067Z,99597.56
2023-04-05T02:23:07.657Z,99634.81
2023-04-05T02:25:36.077Z,99635.84
2023-04-05T02:28:04.664Z,99617.63
2023-04-05T02:30:33.589Z,99648.28
2023-04-05T02:33:02.223Z,99652.50
2023-04-05T02:35:31.707Z,99660.44
2023-04-05T02:38:02.100Z,99672.84
2023-04-05T02:40:30.615Z,99679.69
2023-04-05T02:42:59.128Z,99665.19
2023-04-05T02:45:28.070Z,99676.78
2023-04-05T02:47:56.657Z,99668.88
2023-04-05T02:50:25.422Z,99677.81
2023-04-05T02:52:53.882Z,99666.75
2023-04-05T02:55:23.650Z,99674.16
2023-04-05T02:57:51.981Z,99671.00
2023-04-05T03:00:22.423Z,99647.22
2023-04-05T03:02:50.860Z,99630.28
2023-04-05T03:05:21.116Z,99638.22
2023-04-05T03:07:50.925Z,99634.00
2023-04-05T03:10:19.743Z,99612.91
2023-04-05T03:12:51.498Z,99638.22
2023-04-05T03:15:19.899Z,99622.94
2023-04-05T03:17:48.457Z,99629.50
2023-04-05T03:20:16.899Z,99629.00
2023-04-05T03:22:45.315Z,99614.47
2023-04-05T03:25:13.752Z,99609.69
2023-04-05T03:27:42.119Z,99636.13
2023-04-05T03:30:12.934Z,99619.47
2023-04-05T03:32:41.449Z,99647.19
2023-04-05T03:35:10.478Z,99636.66
2023-04-05T03:37:38.881Z,99665.69
2023-04-05T03:40:10.667Z,99664.63
2023-04-05T03:42:39.133Z,99652.22
2023-04-05T03:45:08.667Z,99644.03
2023-04-05T03:47:38.447Z,99650.13
2023-04-05T03:50:08.241Z,99689.72
2023-04-05T03:52:36.601Z,99668.59
2023-04-05T03:55:05.403Z,99651.97
2023-04-05T03:57:33.825Z,99662.50
2023-04-05T04:00:02.527Z,99661.72
2023-04-05T04:02:30.995Z,99669.66
2023-04-05T04:05:00.841Z,99673.38
2023-04-05T04:07:29.214Z,99680.22
2023-04-05T04:09:57.528Z,99683.66
2023-04-05T04:12:25.969Z,99665.41
2023-04-05T04:14:54.261Z,99656.44
2023-04-05T04:17:29.213Z,99670.97
2023-04-05T04:19:58.613Z,99659.31
2023-04-05T04:22:33.318Z,99684.69
2023-04-05T04:25:04.444Z,99663.84
2023-04-05T04:27:35.757Z,99680.19
2023-04-05T04:30:04.803Z,99692.63
2023-04-05T04:32:46.887Z,99667.28
2023-04-05T04:35:18.307Z,99696.31
2023-04-05T04:37:53.556Z,99703.19
2023-04-05T04:40:23.067Z,99690.75
2023-04-05T04:42:51.490Z,99704.78
2023-04-05T04:45:21.027Z,99703.19
2023-04-05T04:47:53.745Z,99727.75
2023-04-05T04:50:22.599Z,99704.53
2023-04-05T04:52:52.481Z,99718.75
2023-04-05T04:55:25.534Z,99721.66
2023-04-05T04:57:54.592Z,99712.69
2023-04-05T05:00:24.406Z,99738.56
2023-04-05T05:02:53.894Z,99742.53
2023-04-05T05:05:23.442Z,99702.13
2023-04-05T05:07:53.870Z,99717.47
2023-04-05T05:10:22.608Z,99726.41
2023-04-05T05:12:51.918Z,99705.56
2023-04-05T05:15:20.984Z,99724.31
2023-04-05T05:17:53.990Z,99718.50
2023-04-05T05:20:23.396Z,99691.06
2023-04-05T05:22:53.313Z,99678.63
2023-04-05T05:25:21.754Z,99668.88
2023-04-05T05:27:51.234Z,99687.63
2023-04-05T05:30:20.803Z,99686.03
2023-04-05T05:32:49.387Z,99685.50
2023-04-05T05:35:17.934Z,99672.84
2023-04-05T05:37:46.357Z,99681.03
2023-04-05T05:40:16.353Z,99679.97
2023-04-05T05:42:44.812Z,99658.84
2023-04-05T05:45:13.577Z,99695.56
2023-04-05T05:47:42.338Z,99698.97
2023-04-05T05:50:11.490Z,99697.94
2023-04-05T05:52:40.572Z,99723.00
2023-04-05T05:55:09.850Z,99716.66
2023-04-05T05:57:39.978Z,99713.78
2023-04-05T06:00:10.997Z,99746.00
2023-04-05T06:02:39.443Z,99744.16
2023-04-05T06:05:09.078Z,99752.59
2023-04-05T06:07:38.937Z,99765.56
2023-04-05T06:10:08.489Z,99780.63
2023-04-05T06:12:37.157Z,99790.13
2023-04-05T06:15:08.162Z,99803.06
2023-04-05T06:17:42.095Z,99808.38
2023-04-05T06:20:11.906Z,99805.75
2023-04-05T06:22:41.681Z,99846.19
2023-04-05T06:25:13.049Z,99850.69
2023-04-05T06:27:41.533Z,99851.78
2023-04-05T06:30:12.724Z,99854.97
2023-04-05T06:32:41.193Z,99859.47
2023-04-05T06:35:10.221Z,99869.28
2023-04-05T06:37:38.705Z,99874.28
2023-04-05T06:40:08.568Z,99900.47
2023-04-05T06:42:36.956Z,99878.00
2023-04-05T06:45:06.290Z,99910.78
2023-04-05T06:47:36.967Z,99898.09
2023-04-05T06:50:06.059Z,99902.56
2023-04-05T06:52:35.150Z,99898.88
2023-04-05T06:55:03.780Z,99908.94
2023-04-05T06:57:32.484Z,99905.25
2023-04-05T07:00:01.108Z,99911.88
2023-04-05T07:02:29.652Z,99906.84
2023-04-05T07:05:05.124Z,99911.38
2023-04-05T07:07:34.085Z,99923.00
2023-04-05T07:10:02.952Z,99913.75
2023-04-05T07:12:31.312Z,99913.75
2023-04-05T07:15:01.238Z,99911.34
2023-04-05T07:17:29.867Z,99919.03
2023-04-05T07:20:00.208Z,99923.28
2023-04-05T07:22:28.983Z,99916.91
2023-04-05T07:24:57.667Z,99949.75
2023-04-05T07:27:26.187Z,99925.38
2023-04-05T07:29:57.461Z,99933.84
2023-04-05T07:32:33.750Z,99934.88
2023-04-05T07:35:04.387Z,99930.13
2023-04-05T07:37:32.852Z,99948.41
2023-04-05T07:40:01.277Z,99945.22
2023-04-05T07:42:29.618Z,99940.94
2023-04-05T07:44:58.018Z,99939.56
2023-04-05T07:47:26.411Z,99960.19
2023-04-05T07:49:55.057Z,99942.72
2023-04-05T07:52:24.872Z,99945.38
2023-04-05T07:54:53.292Z,99934.72
2023-04-05T07:57:21.881Z,99944.47
2023-04-05T07:59:52.837Z,99947.84
2023-04-05T08:02:21.376Z,99946.47
2023-04-05T08:04:49.750Z,99949.97
2023-04-05T08:07:18.323Z,99937.88
2023-04-05T08:09:48.020Z,99936.78
2023-04-05T08:12:16.376Z,99926.50
2023-04-05T08:14:44.948Z,99922.69
2023-04-05T08:17:14.905Z,99931.72
2023-04-05T08:19:43.322Z,99935.66
2023-04-05T08:22:11.683Z,99935.16
2023-04-05T08:24:40.401Z,99937.75
2023-04-05T08:27:10.693Z,99949.63
2023-04-05T08:29:39.183Z,99951.03
2023-04-05T08:32:09.103Z,99950.66
2023-04-05T08:34:37.965Z,99956.91
2023-04-05T08:37:06.910Z,99952.63
2023-04-05T08:39:36.897Z,99968.66
2023-04-05T08:42:10.019Z,99965.53
2023-04-05T08:44:42.695Z,99973.13
2023-04-05T08:47:15.430Z,99964.13
2023-04-05T08:49:44.837Z,99971.66
2023-04-05T08:52:13.369Z,99963.38
2023-04-05T08:54:42.782Z,99974.97
2023-04-05T08:57:14.721Z,99962.88
2023-04-05T08:59:45.910Z,99968.66
2023-04-05T09:02:18.925Z,99981.22
2023-04-05T09:04:49.340Z,99977.91
2023-04-05T09:07:18.896Z,99984.91
2023-04-05T09:09:51.144Z,99984.78
2023-04-05T09:12:22.656Z,99987.91
2023-04-05T09:14:53.502Z,99984.03
2023-04-05T09:17:22.966Z,99987.69
2023-04-05T09:19:51.540Z,99980.94
2023-04-05T09:22:19.966Z,99983.19
2023-04-05T09:24:49.168Z,99985.34
2023-04-05T09:27:19.282Z,99992.19
2023-04-05T09:29:49.266Z,99995.47
2023-04-05T09:32:21.292Z,99996.50
2023-04-05T09:34:52.489Z,99990.19
2023-04-05T09:37:23.253Z,99993.25
2023-04-05T09:39:52.777Z,99995.28
2023-04-05T09:42:23.312Z,99991.31
2023-04-05T09:44:56.541Z,99988.59
2023-04-05T09:47:31.604Z,99987.72
2023-04-05T09:50:00.245Z,99988.00
2023-04-05T09:52:32.001Z,99991.63
2023-04-05T09:55:02.224Z,99989.56
2023-04-05T09:57:36.659Z,99997.94
2023-04-05T10:00:06.717Z,100004.78
2023-04-05T10:02:39.679Z,100004.25
2023-04-05T10:05:11.662Z,99998.47
2023-04-05T10:07:41.005Z,99993.75
2023-04-05T10:10:10.860Z,99993.75
2023-04-05T10:12:41.683Z,99995.53
2023-04-05T10:15:11.135Z,100003.16
2023-04-05T10:17:49.769Z,99998.59
2023-04-05T10:20:19.631Z,100004.03
2023-04-05T10:23:09.267Z,99999.38
2023-04-05T10:25:53.274Z,100015.56
2023-04-05T10:28:31.571Z,100007.03
2023-04-05T10:31:09.844Z,100008.69
2023-04-05T10:33:42.908Z,99997.78
2023-04-05T10:36:19.625Z,100002.75
2023-04-05T10:39:02.179Z,100010.75
2023-04-05T10:41:35.561Z,100009.47
2023-04-05T10:44:14.932Z,100008.13
2023-04-05T10:46:54.180Z,100017.16
2023-04-05T10:49:31.070Z,100020.13
2023-04-05T10:52:00.338Z,100012.78
2023-04-05T10:54:29.505Z,100011.13
2023-04-05T10:56:58.840Z,100021.31
2023-04-05T10:59:29.192Z,100015.50
2023-04-05T11:01:59.172Z,100019.47
2023-04-05T11:04:29.183Z,100023.00
2023-04-05T11:07:14.681Z,100018.75
2023-04-05T11:09:53.736Z,100016.38
2023-04-05T11:12:42.681Z,100011.25
2023-04-05T11:15:36.237Z,100020.72
2023-04-05T11:18:10.486Z,100020.91
2023-04-05T11:20:48.315Z,100010.91
2023-04-05T11:23:19.945Z,100015.81
2023-04-05T11:25:51.956Z,100014.88
2023-04-05T11:28:25.706Z,100021.00
2023-04-05T11:30:58.928Z,100029.34
2023-04-05T11:33:56.867Z,100015.91
2023-04-05T11:36:41.864Z,100019.00
2023-04-05T11:39:29.743Z,100023.00
2023-04-05T11:42:07.684Z,100024.88
2023-04-05T11:44:45.009Z,100027.19
2023-04-05T11:47:13.988Z,100029.94
2023-04-05T11:49:42.760Z,100043.63
2023-04-05T11:52:17.506Z,100035.66
2023-04-05T11:54:50.228Z,100017.25
2023-04-05T11:57:22.558Z,100033.16
2023-04-05T11:59:52.122Z,100022.41
2023-04-05T12:02:21.211Z,100025.38
2023-04-05T12:04:56.642Z,100020.91
2023-04-05T12:07:29.072Z,100018.47
2023-04-05T12:10:07.287Z,100024.72
2023-04-05T12:12:38.384Z,100030.47
2023-04-05T12:15:09.695Z,100026.75
2023-04-05T12:17:46.607Z,100037.50
2023-04-05T12:20:17.237Z,100043.84
2023-04-05T12:22:49.765Z,100037.22
2023-04-05T12:25:19.279Z,100032.34
2023-04-05T12:27:48.137Z,100029.78
2023-04-05T12:30:17.964Z,100040.81
2023-04-05T12:32:48.299Z,100034.97
2023-04-05T12:35:20.753Z,100022.22
2023-04-05T12:37:52.415Z,100024.06
2023-04-05T12:40:25.969Z,100027.84
2023-04-05T12:42:54.366Z,100021.72
2023-04-05T12:45:25.404Z,100025.97
2023-04-05T12:47:57.840Z,100021.28
2023-04-05T12:50:29.238Z,100013.59
2023-04-05T12:53:00.409Z,100012.69
2023-04-05T12:55:30.432Z,100018.72
2023-04-05T12:58:00.878Z,100014.22
2023-04-05T13:00:31.308Z,100019.78
2023-04-05T13:03:01.127Z,100019.13
2023-04-05T13:05:31.135Z,100016.03
2023-04-05T13:08:01.077Z,100008.38
2023-04-05T13:10:29.463Z,100010.13
2023-04-05T13:12:58.313Z,100014.28
2023-04-05T13:15:27.265Z,100009.31
2023-04-05T13:17:55.970Z,100019.25
2023-04-05T13:20:24.448Z,100015.75
2023-04-05T13:22:52.897Z,100014.22
2023-04-05T13:25:22.753Z,100014.59
2023-04-05T13:27:51.178Z,100014.31
2023-04-05T13:30:20.437Z,100019.13
2023-04-05T13:32:48.811Z,100017.56
2023-04-05T13:35:17.211Z,100026.94
2023-04-05T13:37:45.609Z,100023.28
2023-04-05T13:40:16.653Z,100020.94
2023-04-05T13:42:46.441Z,100028.81
2023-04-05T13:45:14.712Z,100031.03
2023-04-05T13:47:43.274Z,100022.81
2023-04-05T13:50:12.333Z,100022.53
2023-04-05T13:52:40.999Z,100018.28
2023-04-05T13:55:09.879Z,100016.28
2023-04-05T13:57:38.280Z,100017.97
2023-04-05T14:00:09.756Z,100021.13
2023-04-05T14:02:41.295Z,100019.63
2023-04-05T14:05:11.036Z,100017.75
2023-04-05T14:07:40.241Z,100018.66
2023-04-05T14:10:10.249Z,100029.13
2023-04-05T14:12:39.216Z,100021.91
2023-04-05T14:15:10.129Z,100034.47
2023-04-05T14:17:38.705Z,100024.56
2023-04-05T14:20:08.260Z,100025.28
2023-04-05T14:22:36.915Z,100025.66
2023-04-05T14:25:08.094Z,100035.13
2023-04-05T14:27:41.392Z,100034.41
2023-04-05T14:30:12.597Z,100032.94
2023-04-05T14:32:41.359Z,100030.16
2023-04-05T14:35:10.907Z,100043.16
2023-04-05T14:37:39.375Z,100037.81
2023-04-05T14:40:08.568Z,100049.66
2023-04-05T14:42:47.853Z,100050.31
2023-04-05T14:45:19.077Z,100048.81
2023-04-05T14:47:47.566Z,100044.75
2023-04-05T14:50:16.170Z,100040.44
2023-04-05T14:52:45.486Z,100046.44
2023-04-05T14:55:14.181Z,100039.09
2023-04-05T14:57:42.750Z,100045.81
2023-04-05T15:00:12.474Z,100051.50
2023-04-05T15:02:43.913Z,100042.00
2023-04-05T15:05:12.670Z,100049.97
2023-04-05T15:07:41.169Z,100048.97
2023-04-05T15:10:10.160Z,100054.88
2023-04-05T15:12:38.826Z,100062.22
2023-04-05T15:15:08.300Z,100059.84
2023-04-05T15:17:36.753Z,100059.84
2023-04-05T15:20:07.550Z,100056.97
2023-04-05T15:22:40.982Z,100062.81
2023-04-05T15:25:11.101Z,100060.56
2023-04-05T15:27:39.484Z,100059.22
2023-04-05T15:30:09.379Z,100066.53
2023-04-05T15:32:38.425Z,100066.34
2023-04-05T15:35:09.147Z,100063.88
2023-04-05T15:37:37.517Z,100072.38
2023-04-05T15:40:06.827Z,100071.38
2023-04-05T15:42:35.548Z,100071.38
2023-04-05T15:45:04.107Z,100064.53
2023-04-05T15:47:32.515Z,100063.44
2023-04-05T15:50:01.067Z,100070.78
2023-04-05T15:52:30.997Z,100056.75
2023-04-05T15:54:59.411Z,100072.56
2023-04-05T15:57:27.786Z,100076.25
2023-04-05T15:59:56.472Z,100069.78
2023-04-05T16:02:25.503Z,100065.53
2023-04-05T16:04:54.083Z,100063.88
2023-04-05T16:07:22.589Z,100071.28
2023-04-05T16:09:52.534Z,100063.66
2023-04-05T16:12:21.133Z,100067.41
2023-04-05T16:14:49.580Z,100061.13
2023-04-05T16:17:18.035Z,100065.69
2023-04-05T16:19:46.592Z,100064.91
2023-04-05T16:22:16.355Z,100067.41
2023-04-05T16:24:44.780Z,100062.94
2023-04-05T16:27:14.679Z,100067.19
2023-04-05T16:29:43.232Z,100070.84
2023-04-05T16:32:11.727Z,100066.84
2023-04-05T16:34:40.310Z,100064.47
2023-04-05T16:37:09.078Z,100074.16
2023-04-05T16:39:37.585Z,100067.84
2023-04-05T16:42:06.562Z,100075.25
2023-04-05T16:44:36.501Z,100073.38
2023-04-05T16:47:07.180Z,100077.50
2023-04-05T16:49:35.666Z,100078.91
2023-04-05T16:52:04.085Z,100079.63
2023-04-05T16:54:32.880Z,100082.00
2023-04-05T16:57:01.355Z,100086.31
2023-04-05T16:59:30.037Z,100079.97
2023-04-05T17:01:59.926Z,100087.00
2023-04-05T17:04:28.548Z,100085.91
2023-04-05T17:06:57.222Z,100084.53
2023-04-05T17:09:29.185Z,100092.81
2023-04-05T17:11:57.977Z,100095.56
2023-04-05T17:14:26.681Z,100094.47
2023-04-05T17:16:55.892Z,100099.00
2023-04-05T17:19:26.005Z,100103.31
2023-04-05T17:21:54.766Z,100098.09
2023-04-05T17:24:29.946Z,100100.59
2023-04-05T17:26:58.540Z,100096.16
2023-04-05T17:29:27.117Z,100113.41
2023-04-05T17:31:56.986Z,100109.44
2023-04-05T17:34:27.140Z,100109.25
2023-04-05T17:36:55.626Z,100119.38
2023-04-05T17:39:24.123Z,100127.06
2023-04-05T17:41:54.835Z,100125.78
2023-04-05T17:44:23.683Z,100133.22
2023-04-05T17:47:01.657Z,100132.09
2023-04-05T17:49:38.363Z,100126.00
2023-04-05T17:52:08.872Z,100144.06
2023-04-05T17:54:37.914Z,100139.66
2023-04-05T17:57:06.671Z,100136.16
2023-04-05T17:59:35.261Z,100139.94
2023-04-05T18:02:03.880Z,100139.41
2023-04-05T18:04:32.582Z,100140.34
2023-04-05T18:07:02.525Z,100147.69
2023-04-05T18:09:32.397Z,100149.56
2023-04-05T18:12:01.687Z,100150.41
2023-04-05T18:14:30.428Z,100155.22
2023-04-05T18:16:59.447Z,100155.66
2023-04-05T18:19:28.108Z,100148.81
2023-04-05T18:21:56.542Z,100148.09
2023-04-05T18:24:26.612Z,100136.44
2023-04-05T18:26:55.349Z,100132.47
2023-04-05T18:29:28.296Z,100134.31
2023-04-05T18:31:57.051Z,100138.41
2023-04-05T18:34:26.249Z,100143.81
2023-04-05T18:36:54.914Z,100143.44
2023-04-05T18:39:26.235Z,100147.22
2023-04-05T18:41:57.397Z,100138.13
2023-04-05T18:44:26.190Z,100140.22
2023-04-05T18:46:55.617Z,100145.78
2023-04-05T18:49:24.125Z,100142.56
2023-04-05T18:51:52.590Z,100136.44
2023-04-05T18:54:21.180Z,100134.56
2023-04-05T18:56:49.640Z,100144.75
2023-04-05T18:59:20.054Z,100137.91
2023-04-05T19:01:49.270Z,100142.78
2023-04-05T19:04:17.825Z,100143.63
2023-04-05T19:06:46.218Z,100141.22
2023-04-05T19:09:16.732Z,100141.44
2023-04-05T19:11:45.271Z,100144.31
2023-04-05T19:14:13.638Z,100142.22
2023-04-05T19:16:44.721Z,100148.28
2023-04-05T19:19:13.088Z,100149.59
2023-04-05T19:21:41.742Z,100150.38
2023-04-05T19:24:13.260Z,100148.00
2023-04-05T19:26:41.975Z,100151.00
2023-04-05T19:29:10.659Z,100150.03
2023-04-05T19:31:40.068Z,100146.13
2023-04-05T19:34:10.274Z,100143.75
2023-04-05T19:36:39.407Z,100144.84
2023-04-05T19:39:08.680Z,100143.53
2023-04-05T19:41:37.949Z,100145.34
2023-04-05T19:44:11.807Z,100143.72
2023-04-05T19:46:41.653Z,100140.53
2023-04-05T19:49:14.450Z,100136.22
2023-04-05T19:51:44.056Z,100134.41
2023-04-05T19:54:14.964Z,100127.28
2023-04-05T19:56:43.608Z,100128.91
2023-04-05T19:59:29.953Z,100125.03
2023-04-05T20:02:00.202Z,100118.91
2023-04-05T20:04:34.581Z,100124.00
2023-04-05T20:07:04.008Z,100118.13
2023-04-05T20:09:33.602Z,100122.97
2023-04-05T20:12:03.915Z,100117.09
2023-04-05T20:14:44.035Z,100120.59
2023-04-05T20:17:16.108Z,100112.69
2023-04-05T20:20:00.978Z,100126.03
2023-04-05T20:22:30.709Z,100118.47
2023-04-05T20:24:59.304Z,100114.72
2023-04-05T20:27:28.141Z,100111.66
2023-04-05T20:29:57.379Z,100112.41
2023-04-05T20:32:27.904Z,100111.28
2023-04-05T20:34:57.829Z,100108.13
2023-04-05T20:37:26.246Z,100112.16
2023-04-05T20:39:58.567Z,100100.63
2023-04-05T20:42:26.977Z,100099.38
2023-04-05T20:44:55.512Z,100093.53
2023-04-05T20:47:24.045Z,100102.16
2023-04-05T20:49:52.636Z,100089.63
2023-04-05T20:52:22.526Z,100090.91
2023-04-05T20:54:52.305Z,100084.00
2023-04-05T20:57:20.910Z,100083.47
2023-04-05T20:59:49.461Z,100084.00
2023-04-05T21:02:17.911Z,100079.19
2023-04-05T21:04:49.480Z,100074.91
2023-04-05T21:07:18.384Z,100073.59
2023-04-05T21:09:48.227Z,100073.69
2023-04-05T21:12:16.797Z,100081.66
2023-04-05T21:14:45.243Z,100080.53
2023-04-05T21:17:14.235Z,100080.31
2023-04-05T21:19:43.092Z,100078.31
2023-04-05T21:22:11.661Z,100079.56
2023-04-05T21:24:40.046Z,100077.81
2023-04-05T21:27:09.855Z,100080.94
2023-04-05T21:29:38.395Z,100085.69
2023-04-05T21:32:07.285Z,100075.19
2023-04-05T21:34:35.732Z,100076.78
2023-04-05T21:37:04.248Z,100072.53
2023-04-05T21:39:32.644Z,100076.19
2023-04-05T21:42:01.332Z,100080.09
2023-04-05T21:44:31.144Z,100073.81
2023-04-05T21:47:00.292Z,100085.97
2023-04-05T21:49:28.860Z,100081.50
2023-04-05T21:51:57.205Z,100078.94
2023-04-05T21:54:25.639Z,100079.13
2023-04-05T21:56:54.523Z,100082.78
2023-04-05T21:59:22.985Z,100085.81
2023-04-05T22:01:52.892Z,100080.09
2023-04-05T22:04:21.674Z,100085.44
2023-04-05T22:06:50.249Z,100078.56
2023-04-05T22:09:18.708Z,100082.84
2023-04-05T22:11:47.472Z,100076.50
2023-04-05T22:14:16.990Z,100085.31
2023-04-05T22:16:45.470Z,100077.44
2023-04-05T22:19:15.346Z,100082.97
2023-04-05T22:21:43.723Z,100097.28
2023-04-05T22:24:12.563Z,100090.38
2023-04-05T22:26:41.403Z,100095.75
2023-04-05T22:29:10.175Z,100095.00
2023-04-05T22:31:38.749Z,100090.66
2023-04-05T22:34:07.575Z,100088.38
2023-04-05T22:36:37.479Z,100088.31
2023-04-05T22:39:05.853Z,100101.25
2023-04-05T22:41:34.214Z,100109.75
2023-04-05T22:44:02.629Z,100106.59
2023-04-05T22:46:31.219Z,100109.75
2023-04-05T22:48:59.650Z,100103.41
2023-04-05T22:51:28.103Z,100106.03
2023-04-05T22:53:57.967Z,100098.66
2023-04-05T22:56:26.381Z,100100.22
2023-04-05T22:58:54.830Z,100104.75
2023-04-05T23:01:23.357Z,100100.28
2023-04-05T23:03:51.816Z,100102.94
2023-04-05T23:06:20.236Z,100110.16
2023-04-05T23:08:48.811Z,100104.00
2023-04-05T23:11:18.604Z,100108.75
2023-04-05T23:13:47.029Z,100108.81
2023-04-05T23:16:17.167Z,100105.66
2023-04-05T23:18:45.889Z,100112.81
2023-04-05T23:21:14.319Z,100110.41
2023-04-05T23:23:42.774Z,100105.38
2023-04-05T23:26:11.214Z,100102.84
2023-04-05T23:28:41.231Z,100109.75
2023-04-05T23:31:09.613Z,100107.09
2023-04-05T23:33:38.085Z,100100.00
2023-04-05T23:36:07.858Z,100098.41
2023-04-05T23:38:36.813Z,100091.03
2023-04-05T23:41:05.462Z,100094.78
2023-04-05T23:43:34.136Z,100086.03
2023-04-05T23:46:08.022Z,100088.69
2023-04-05T23:48:36.488Z,100092.25
2023-04-05T23:51:04.957Z,100078.91
2023-04-05T23:53:33.495Z,100072.72
2023-04-05T23:56:02.090Z,100072.81
2023-04-05T23:58:32.402Z,100075.31
